Meiji Maru — JM6300 — position and weather

sailwx.info

Track history (hours):
 
Tides and Currents Weather Stations Pressure Air Temp Water Temp Dewpoint Dewpoint Depression Visibility Wind Speed Wind Dir Waves Ship Positions

Meiji Maru

Last reported at 2017-Dec-21 13:36 UTC. Time now 2018-Feb-21 09:10 UTC.
Position N 34°26' E 137°15'.
Warning: this ship's position is months out of date.

Length 46 m.

Type: Tug. MMSI: 431694000.

Date/timePositionNaut miles runAvg speedWind from/ knotsBaromVisibWave heightAir tempDewpointWater temp
2017-Dec-21 13:36N 34°26' E 137°15'4610.8
2017-Dec-21 09:19N 34°34' E 138°11'412.2
2017-Dec-21 08:59N 34°33' E 138°16'711.7
2017-Dec-21 08:22N 34°34' E 138°24'411.7
2017-Dec-21 07:59N 34°35' E 138°30'612.0
2017-Dec-21 07:30N 34°35' E 138°37'611.8
2017-Dec-21 06:59N 34°35' E 138°44'611.2
2017-Dec-21 06:28N 34°35' E 138°51'511.1
2017-Dec-21 06:00N 34°36' E 138°57'611.4
2017-Dec-21 05:30N 34°41' E 139°01'611.5
2017-Dec-21 04:58N 34°46' E 139°06'611.5
2017-Dec-21 04:25N 34°51' E 139°10'510.9
2017-Dec-21 03:58N 34°55' E 139°14'510.6
2017-Dec-21 03:30N 34°58' E 139°18'610.5
2017-Dec-21 02:55N 35°01' E 139°25'410.4
2017-Dec-21 02:30N 35°02' E 139°30'510.2
2017-Dec-21 02:00N 35°04' E 139°36'610.5
2017-Dec-21 01:28N 35°07' E 139°42'510.1
2017-Dec-21 01:00N 35°11' E 139°44'510.9
2017-Dec-21 00:30N 35°16' E 139°45'510.8
2017-Dec-21 00:01N 35°21' E 139°42'510.6
2017-Dec-20 23:31N 35°26' E 139°43'2 4.8
2017-Dec-20 23:01N 35°28' E 139°41'1 1.6
2017-Dec-20 22:30N 35°28' E 139°42'1 2.1
2017-Dec-20 22:01N 35°27' E 139°43'3 5.9
2017-Dec-20 21:31N 35°25' E 139°46'3 5.9
2017-Dec-20 21:00N 35°22' E 139°45'3 6.3
2017-Dec-20 20:31N 35°19' E 139°44'3 5.9
2017-Dec-20 20:00N 35°17' E 139°46'3 6.2
2017-Dec-20 19:30N 35°13' E 139°47'3 6.7
2017-Dec-20 19:00N 35°10' E 139°47'3 6.4
2017-Dec-20 18:31N 35°07' E 139°46'3 6.4
2017-Dec-20 18:00N 35°04' E 139°45'3 6.5
2017-Dec-20 17:30N 35°01' E 139°44'3 6.4
2017-Dec-20 17:01N 34°58' E 139°43'  
Track history (hours):
 
Tides and Currents Weather Stations Pressure Air Temp Water Temp Dewpoint Dewpoint Depression Visibility Wind Speed Wind Dir Waves Ship Positions

Meiji Maru

Last reported at 2017-Dec-21 13:36 UTC. Time now 2018-Feb-21 09:10 UTC.
Position N 34°26' E 137°15'.
Warning: this ship's position is months out of date.

Length 46 m.

Type: Tug. MMSI: 431694000.

Date/timePositionNaut miles runAvg speedWind from/ knotsBaromVisibWave heightAir tempDewpointWater temp
2017-Dec-21 13:36N 34°26' E 137°15'4610.8
2017-Dec-21 09:19N 34°34' E 138°11'412.2
2017-Dec-21 08:59N 34°33' E 138°16'711.7
2017-Dec-21 08:22N 34°34' E 138°24'411.7
2017-Dec-21 07:59N 34°35' E 138°30'612.0
2017-Dec-21 07:30N 34°35' E 138°37'611.8
2017-Dec-21 06:59N 34°35' E 138°44'611.2
2017-Dec-21 06:28N 34°35' E 138°51'511.1
2017-Dec-21 06:00N 34°36' E 138°57'611.4
2017-Dec-21 05:30N 34°41' E 139°01'611.5
2017-Dec-21 04:58N 34°46' E 139°06'611.5
2017-Dec-21 04:25N 34°51' E 139°10'510.9
2017-Dec-21 03:58N 34°55' E 139°14'510.6
2017-Dec-21 03:30N 34°58' E 139°18'610.5
2017-Dec-21 02:55N 35°01' E 139°25'410.4
2017-Dec-21 02:30N 35°02' E 139°30'510.2
2017-Dec-21 02:00N 35°04' E 139°36'610.5
2017-Dec-21 01:28N 35°07' E 139°42'510.1
2017-Dec-21 01:00N 35°11' E 139°44'510.9
2017-Dec-21 00:30N 35°16' E 139°45'510.8
2017-Dec-21 00:01N 35°21' E 139°42'510.6
2017-Dec-20 23:31N 35°26' E 139°43'2 4.8
2017-Dec-20 23:01N 35°28' E 139°41'1 1.6
2017-Dec-20 22:30N 35°28' E 139°42'1 2.1
2017-Dec-20 22:01N 35°27' E 139°43'3 5.9
2017-Dec-20 21:31N 35°25' E 139°46'3 5.9
2017-Dec-20 21:00N 35°22' E 139°45'3 6.3
2017-Dec-20 20:31N 35°19' E 139°44'3 5.9
2017-Dec-20 20:00N 35°17' E 139°46'3 6.2
2017-Dec-20 19:30N 35°13' E 139°47'3 6.7
2017-Dec-20 19:00N 35°10' E 139°47'3 6.4
2017-Dec-20 18:31N 35°07' E 139°46'3 6.4
2017-Dec-20 18:00N 35°04' E 139°45'3 6.5
2017-Dec-20 17:30N 35°01' E 139°44'3 6.4
2017-Dec-20 17:01N 34°58' E 139°43'  

Dump ship's entire track history